Black River, Michigan
Current Conditions -  °F | °C
As of 4:54 PM on Friday 24 Oct 2014 (Local Time) from KAPN Reporting Station
Overcast Overcast  
Wind Chill: 56°   Ceiling: 2300
Heat Index: 56°   Visibility: 10mi
Dew Point: 47°   Wind: 6mph
Humidity: 72%   Direction: 250°WSW
Pressure: 29.93"   Gusts: NA
Location:  44.82°N, 83.3°W
Report Text: KAPN 242054Z AUTO 25005KT 10SM OVC023 13/08 A2993 RMK AO2 SLP138 T01330083 56010
Loading
Personal Weather Stations






























Interactive Weather Map
Tropical Storm Tracking
New forecast layout! Learn more

10-Day Weather Forecast

Advertisements
Track Severe Weather on mobile